Forside
METAR-TAF:

METAR-TAF

Lufthavne :

Waukesha County Airport (Crites Field)

Waukesha, Wisconsin, USA

Breddekreds: 43-02-28N, længdekreds: 088-14-13W, højde: 278 m

Aktuelle vejr

Denne rapport blev lavet for 1 time og 4 minutter siden, kl. 16:45 UTC
Vind 4 kt fra vest
Temperatur 25°C
Fugtighed 39%
Tryk 1020 hPa
Sigt: 16.1 km
Spredte skyer i en højde af 5000 ft

METAR: KUES 031645Z 27004KT 10SM SCT050 25/10 A3013

Tid: 12:49 (17:49 UTC)

Vejrudsigter

Denne rapport blev lavet for 26 minutter siden, kl. 17:23 UTC
Foreløbig gælder fra 03 på 18 UTC til 04 på 18 UTC
Vind 5 kt fra vest
Sigt: 10 km
Spredte skyer i en højde af 5000 ft
Fra 04 på 0100 UTC
Vind kt fra nord
Sigt: 10 km
Nogle få skyer i en højde af 6000 ft
Fra 04 på 1300 UTC
Vind 3 kt fra vest
Sigt: 10 km
Nogle få skyer i en højde af 5000 ft
Fra 04 på 1600 UTC
Vind 4 kt fra vest
Sigt: 10 km
Spredte skyer i en højde af 5000 ft

TAF: KUES 031723Z 0318/0418 28005KT P6SM SCT050 FM040100 00000KT P6SM FEW060 FM041300 28003KT P6SM FEW050 FM041600 27004KT P6SM SCT050

Vejrobservationer og prognoser fra mere end 4000 lufthavne (METAR og TAF).

De gule og røde prikker repræsenterer de meteorologiske stationer.

Flyt musen over at se navnet på stationen.

Så klik over at se vejr observationer og prognoser.

At skifte det kort: Klik på de grønne knapper med et sort kors for at zoome ind; på den grønne knap med en bindestreg for at zoome ud; eller på de grønne pile for tilstødende kort.


METAR-TAF: